Airfield :
LOGIN :

Register | Disclaimer

   EN    FR    IT 

 










Legend :    VFR   Marginal VFR   IFR   Intensive IFR   Very Intensive IFR
Visi :
Ceiling :
>= 8 km
>= 3000ft
5 to 8 km
1000 to 3000 ft
1500m to 5 km
500 to 1000 ft
800 to 1500m
200 to 500 ft
< 800m
< 200 ft
Symbols :   Thunderstorms  Fog  Heavy snow  Heavy precipitations  Wind > 20 kt
SIGMETs :     Misc.  Thunderstorms  Icing  Turbulence  Mountain Waves  Volcanic Ashes






- Airport Elevation : 290 ft
- IATA code : ACI


EGJA - Alderney

CURRENT METAR :
  • 290920Z 22019KT 9999 -DZ FEW008 BKN010 14/13 Q1016

EXPIRED METARs :
  • 290850Z 22018KT 9999 FEW008 BKN010 14/12 Q1016
  • 290820Z 23018KT 9999 -DZ FEW008 BKN010 13/12 Q1016 RERA REDZ
  • 290750Z 23018KT 5000 RADZ FEW007 BKN008 13/12 Q1016
  • 290720Z 24022KT 8000 RA FEW008 BKN010 13/11 Q1016
  • 290650Z 24018KT 9999 -RA FEW008 BKN012 13/11 Q1016

TAF TAF EGJA
Valid from the 29 at 09:00 until the 29 at 18:00 UTC


290801Z 2909/2918 24018KT 9999 FEW010 BKN020
TEMPO 2909/2918 24024G34KT 6000 -DZ BKN007
PROB40
TEMPO 2909/2911 3000 RADZ BR BKN003



MET'MAP, your aeronautical weather chart ! - Copyright ORBIFLY December 2007 - Disclaimer

ORBIFLY MET'MAP TEAM :

Programming & Development : Alexandra Zaïnal
Concept & original design : Baudouin d'Aumeries
Assistance for programming : Marc-Olivier Méhu
Technical & hardware support : Manuel Goepfert

Contact : metmap@orbifly.com




SOURCES & CREDITS :

   NOAA